• Join FlightAware (Why Join?)
  • Login
  • US Flag 
07:54AM EDT


 

Airport Tracker/Info


-or-


 

Live Flight TrackerFlight Track Log ✈ N731P ✈ 07-May-2013 ✈ KHOU - KADS

Flight Track Log - Related Links

Times and Time Zones

All times are in EDT time to prevent confusion due to time zone crossing. See the N731P flight status page for this flight to view local times or setup timezone preferences in your user account.

Time Position Orientation Groundspeed Altitude Reporting Facility
EDT Latitude Longitude Course Direction KTS MPH feet Rate Location/Type
04:53PM 29.6431 -95.2808 339° North 104 120 600  Level Houston Center
04:54PM 29.6242 -95.3050 228° Southwest 107 123 1,700 1,080 Climbing Houston Center
04:55PM 29.6150 -95.3158 226° Southwest 110 127 2,200 1,020 Climbing Houston Center
04:55PM 29.6017 -95.3339 230° Southwest 124 143 2,800 720 Climbing Houston Center
04:56PM 29.5933 -95.3469 234° Southwest 117 135 3,000 180 Climbing Houston Center
04:56PM 29.5758 -95.3708 230° Southwest 158 182 3,000  Level Houston Center
04:57PM 29.5664 -95.3836 230° Southwest 134 154 3,000  Level Houston Center
04:57PM 29.5481 -95.4125 234° Southwest 162 186 3,000  Level Houston Center
04:58PM 29.5469 -95.4386 267° West 161 185 3,000  Level Houston Center
04:58PM 29.5467 -95.4656 269° West 168 193 3,000  Level Houston Center
04:59PM 29.8906 -95.3698 339° North  Level FlightAware Approximate
04:59PM 29.5467 -95.4922 270° West 166 191 3,000  Level Houston Center
04:59PM 29.5475 -95.5231 272° West 173 199 3,000  Level Houston Center
05:00PM 29.5478 -95.5475 271° West 169 194 3,000 60 Level Houston Center
05:00PM 29.5528 -95.5800 280° West 166 191 3,100 180 Climbing Houston Center
05:01PM 29.5619 -95.5964 303° West 172 198 3,200 360 Climbing Houston Center
05:01PM 29.5781 -95.6275 301° West 168 193 3,500 420 Climbing Houston Center
05:02PM 29.5869 -95.6422 305° West 169 194 3,700 360 Climbing Houston Center
05:03PM 29.6114 -95.6886 301° West 169 194 4,100 360 Climbing Houston Center
05:03PM 29.6358 -95.7119 320° Northwest 180 207 4,300 480 Climbing Houston Center
05:04PM 29.6606 -95.7156 353° North 181 208 4,600 420 Climbing Houston Center
05:05PM 29.7086 -95.7242 351° North 176 203 5,000 300 Climbing Houston Center
05:06PM 29.7361 -95.7292 351° North 176 203 5,100 60 Climbing Houston Center
05:06PM 29.7581 -95.7331 351° North 177 204 5,100  Level Houston Center
05:07PM 29.8089 -95.7411 352° North 180 207 5,100  Level Houston Center
05:08PM 29.8406 -95.7458 353° North 192 221 5,100  Level Houston Center
05:08PM 29.8633 -95.7503 350° North 190 219 5,100  Level Houston Center
05:09PM 29.8894 -95.7547 352° North 192 221 5,100  Level Houston Center
05:09PM 29.9169 -95.7589 353° North 193 222 5,100  Level Houston Center
05:10PM 29.9450 -95.7650 349° North 189 217 5,100  Level Houston Center
05:10PM 29.9792 -95.7692 354° North 188 216 5,100  Level Houston Center
05:11PM 30.0325 -95.7789 351° North 192 221 5,100  Level Houston Center
05:12PM 30.0839 -95.7875 352° North 187 215 5,100  Level Houston Center
05:13PM 30.1375 -95.7969 351° North 193 222 5,100 -120 Level Houston Center
05:14PM 30.1581 -95.8006 351° North 188 216 5,000  Descending Houston Center
05:14PM 30.1886 -95.8067 350° North 188 216 5,100 60 Climbing Houston Center
05:15PM 30.2114 -95.8089 355° North 191 220 5,100 240 Level Houston Center
05:15PM 30.2392 -95.8147 350° North 183 211 5,400 360 Climbing Houston Center
05:16PM 30.2975 -95.8253 351° North 176 203 5,800 360 Climbing Houston Center
05:17PM 30.3117 -95.8286 349° North 171 197 5,900 240 Climbing Houston Center
05:17PM 30.3453 -95.8339 352° North 174 200 6,100 60 Climbing Houston Center
05:18PM 30.3969 -95.8422 352° North 184 212 6,100 -120 Level Houston Center
05:19PM 30.4139 -95.8458 350° North 191 220 6,000 60 Descending Houston Center
05:20PM 30.4506 -95.8511 353° North 192 221 6,200 60 Climbing Houston Center
05:21PM 30.5047 -95.8603 352° North 198 228 6,200  Level Houston Center
05:22PM 30.5586 -95.8703 351° North 196 226 6,200 -60 Level Houston Center
05:23PM 30.6239 -95.8811 352° North 198 228 6,100  Descending Houston Center
05:24PM 30.6789 -95.8897 352° North 197 227 6,200 -60 Climbing Houston Center
05:25PM 30.7442 -95.9019 351° North 191 220 6,000  Descending Houston Center
05:26PM 30.7897 -95.9106 351° North 193 222 6,200 60 Climbing Houston Center
05:27PM 30.8453 -95.9192 352° North 199 229 6,200 -60 Level Houston Center
05:28PM 30.8978 -95.9289 351° North 192 221 6,100  Descending Houston Center
05:29PM 30.9528 -95.9378 352° North 197 227 6,200  Climbing Houston Center
05:30PM 31.0072 -95.9478 351° North 197 227 6,200 -60 Level Houston Center
05:31PM 31.0722 -95.9594 351° North 197 227 6,100 -60 Descending Houston Center
05:32PM 31.1269 -95.9678 353° North 197 227 6,100  Level Houston Center
05:33PM 31.1797 -95.9808 348° North 197 227 6,100  Level Houston Center
05:34PM 31.2283 -95.9922 349° North 193 222 6,100  Level Fort Worth Center
05:35PM 31.2869 -96.0083 347° North 193 222 6,200  Climbing Fort Worth Center
05:36PM 31.3392 -96.0197 349° North 188 216 6,100 -60 Descending Fort Worth Center
05:37PM 31.3936 -96.0333 348° North 193 222 6,100  Level Fort Worth Center
05:38PM 31.4481 -96.0472 348° North 199 229 6,100  Level Fort Worth Center
05:39PM 31.5025 -96.0586 350° North 199 229 6,100  Level Fort Worth Center
05:40PM 31.5547 -96.0725 347° North 199 229 6,200  Climbing Fort Worth Center
05:41PM 31.6114 -96.0839 350° North 199 229 6,100  Descending Fort Worth Center
05:42PM 31.6636 -96.0978 347° North 193 222 6,200  Climbing Fort Worth Center
05:43PM 31.7119 -96.1167 342° North 193 222 6,100  Descending Fort Worth Center
05:44PM 31.7706 -96.1403 341° North 197 227 6,200  Climbing Fort Worth Center
05:45PM 31.8144 -96.1544 345° North 195 224 6,200 -60 Level Fort Worth Center
05:46PM 31.8647 -96.1708 345° North 200 230 6,100 -60 Descending Fort Worth Center
05:47PM 31.9194 -96.1894 344° North 200 230 6,100  Level Fort Worth Center
05:48PM 31.9739 -96.2083 344° North 200 230 6,200  Climbing Fort Worth Center
05:49PM 32.0219 -96.2225 346° North 193 222 6,200  Level Fort Worth Center
05:50PM 32.0786 -96.2464 340° North 193 222 6,200  Level Fort Worth Center
05:51PM 32.1289 -96.2628 345° North 198 228 6,200  Level Fort Worth Center
05:52PM 32.1894 -96.2867 342° North 198 228 6,200 -60 Level Fort Worth Center
05:53PM 32.2356 -96.2983 348° North 192 221 6,100 -60 Descending Fort Worth Center
05:54PM 32.2942 -96.3197 343° North 192 221 6,100  Level Fort Worth Center
05:55PM 32.3403 -96.3364 343° North 192 221 6,100  Level Fort Worth Center
05:56PM 32.3969 -96.3578 342° North 192 221 6,100 -60 Level Fort Worth Center
05:57PM 32.4450 -96.3744 344° North 192 221 6,000 -240 Descending Fort Worth Center
05:58PM 32.4994 -96.4083 332° Northwest 199 229 5,700 -300 Descending Fort Worth Center
05:59PM 32.5456 -96.4350 334° Northwest 199 229 5,400 -360 Descending Fort Worth Center
06:00PM 32.6044 -96.4714 333° Northwest 205 236 5,000 -240 Descending Fort Worth Center
06:01PM 32.6483 -96.4981 333° Northwest 205 236 5,000  Level Fort Worth Center
06:02PM 32.6967 -96.5394 324° Northwest 199 229 5,000  Level Fort Worth Center
06:03PM 32.7325 -96.5761 319° Northwest 194 223 5,000  Level Fort Worth Center
06:04PM 32.7786 -96.6228 320° Northwest 194 223 5,000  Level Fort Worth Center
06:05PM 32.8164 -96.6594 321° Northwest 189 217 5,000 -60 Level Fort Worth Center
06:06PM 32.8500 -96.6833 329° Northwest 195 224 4,900 -300 Descending Dallas / Fort Worth TRACON
06:07PM 32.9000 -96.7167 331° Northwest 200 230 4,500 -540 Descending Dallas / Fort Worth TRACON
06:08PM 32.9333 -96.7500 320° Northwest 179 206 3,900 -780 Descending Dallas / Fort Worth TRACON
06:09PM 32.9833 -96.7667 344° North 182 209 3,100 -660 Descending Dallas / Fort Worth TRACON
06:10PM 33.0167 -96.8167 308° West 149 171 2,600 -1,080 Descending Dallas / Fort Worth TRACON
06:11PM 32.9833 -96.8333 203° Southwest 122 140 900 -1,620 Descending Dallas / Fort Worth TRACON
06:13PM 32.9667 -96.8333 320° Northwest  Level FlightAware Approximate